createdAt,value
2022-10-06T00:01:09.616Z,12.10
2022-10-06T00:03:38.308Z,12.20
2022-10-06T00:06:06.918Z,12.20
2022-10-06T00:08:36.721Z,12.20
2022-10-06T00:11:05.743Z,12.20
2022-10-06T00:13:33.597Z,12.30
2022-10-06T00:16:01.203Z,12.30
2022-10-06T00:18:29.763Z,12.30
2022-10-06T00:20:58.527Z,12.40
2022-10-06T00:23:27.531Z,12.50
2022-10-06T00:25:54.589Z,12.50
2022-10-06T00:28:21.773Z,12.50
2022-10-06T00:30:48.743Z,12.50
2022-10-06T00:33:17.695Z,12.50
2022-10-06T00:35:46.967Z,12.50
2022-10-06T00:38:16.414Z,12.50
2022-10-06T00:40:48.686Z,12.50
2022-10-06T00:43:43.209Z,12.50
2022-10-06T00:46:17.004Z,12.50
2022-10-06T00:48:46.455Z,12.50
2022-10-06T00:51:14.177Z,12.50
2022-10-06T00:53:42.130Z,12.50
2022-10-06T00:56:09.021Z,12.50
2022-10-06T00:58:35.813Z,12.50
2022-10-06T01:01:03.969Z,12.50
2022-10-06T01:03:37.031Z,12.50
2022-10-06T01:06:05.281Z,12.50
2022-10-06T01:08:32.968Z,12.60
2022-10-06T01:10:59.715Z,12.60
2022-10-06T01:13:30.658Z,12.70
2022-10-06T01:16:04.680Z,12.70
2022-10-06T01:18:33.049Z,12.80
2022-10-06T01:21:14.725Z,12.90
2022-10-06T01:23:41.913Z,12.90
2022-10-06T01:26:11.445Z,12.90
2022-10-06T01:28:39.382Z,12.80
2022-10-06T01:31:07.959Z,12.80
2022-10-06T01:33:34.971Z,12.80
2022-10-06T01:36:02.226Z,12.80
2022-10-06T01:38:29.371Z,12.70
2022-10-06T01:41:02.442Z,12.70
2022-10-06T01:43:30.182Z,12.70
2022-10-06T01:45:58.712Z,12.70
2022-10-06T01:48:26.704Z,12.70
2022-10-06T01:50:56.167Z,12.80
2022-10-06T01:53:23.083Z,12.80
2022-10-06T01:55:49.902Z,12.80
2022-10-06T01:58:20.880Z,12.80
2022-10-06T02:00:47.929Z,12.70
2022-10-06T02:03:14.874Z,12.70
2022-10-06T02:05:42.069Z,12.70
2022-10-06T02:08:10.510Z,12.60
2022-10-06T02:10:37.300Z,12.60
2022-10-06T02:13:08.754Z,12.50
2022-10-06T02:15:36.199Z,12.50
2022-10-06T02:18:03.291Z,12.50
2022-10-06T02:20:30.157Z,12.50
2022-10-06T02:22:56.860Z,12.60
2022-10-06T02:25:23.592Z,12.60
2022-10-06T02:27:51.198Z,12.60
2022-10-06T02:30:18.055Z,12.70
2022-10-06T02:32:47.386Z,12.70
2022-10-06T02:35:14.126Z,12.80
2022-10-06T02:37:42.088Z,12.80
2022-10-06T02:40:11.196Z,12.80
2022-10-06T02:42:38.514Z,12.80
2022-10-06T02:45:06.955Z,12.80
2022-10-06T02:47:35.881Z,12.80
2022-10-06T02:50:05.594Z,12.70
2022-10-06T02:52:35.131Z,12.60
2022-10-06T02:55:04.082Z,12.60
2022-10-06T02:57:31.198Z,12.60
2022-10-06T03:00:00.350Z,12.50
2022-10-06T03:02:32.275Z,12.50
2022-10-06T03:04:59.355Z,12.40
2022-10-06T03:07:26.301Z,12.40
2022-10-06T03:09:53.247Z,12.40
2022-10-06T03:12:23.049Z,12.30
2022-10-06T03:14:50.820Z,12.20
2022-10-06T03:17:17.683Z,12.30
2022-10-06T03:19:49.995Z,12.20
2022-10-06T03:22:16.737Z,12.20
2022-10-06T03:24:51.320Z,12.10
2022-10-06T03:27:18.065Z,12.10
2022-10-06T03:29:46.007Z,12.10
2022-10-06T03:32:13.507Z,12.00
2022-10-06T03:34:41.417Z,12.00
2022-10-06T03:37:11.667Z,12.00
2022-10-06T03:39:40.093Z,12.00
2022-10-06T03:42:07.169Z,12.00
2022-10-06T03:44:34.998Z,12.10
2022-10-06T03:47:02.444Z,12.10
2022-10-06T03:49:29.583Z,12.20
2022-10-06T03:51:56.475Z,12.30
2022-10-06T03:54:28.607Z,12.40
2022-10-06T03:56:57.204Z,12.50
2022-10-06T03:59:24.214Z,12.50
2022-10-06T04:01:52.854Z,12.60
2022-10-06T04:04:24.637Z,12.60
2022-10-06T04:06:55.795Z,12.70
2022-10-06T04:09:22.869Z,12.80
2022-10-06T04:11:51.778Z,12.80
2022-10-06T04:14:20.701Z,12.90
2022-10-06T04:16:49.651Z,12.90
2022-10-06T04:19:22.027Z,13.00
2022-10-06T04:21:53.847Z,13.00
2022-10-06T04:24:24.457Z,13.10
2022-10-06T04:26:52.507Z,13.10
2022-10-06T04:29:21.040Z,13.10
2022-10-06T04:31:52.736Z,13.10
2022-10-06T04:34:28.112Z,13.20
2022-10-06T04:36:55.013Z,13.20
2022-10-06T04:39:21.762Z,13.30
2022-10-06T04:41:50.125Z,13.30
2022-10-06T04:44:24.183Z,13.40
2022-10-06T04:46:53.100Z,13.40
2022-10-06T04:49:20.942Z,13.40
2022-10-06T04:51:50.991Z,13.40
2022-10-06T04:54:19.192Z,13.50
2022-10-06T04:56:48.603Z,13.50
2022-10-06T04:59:17.496Z,13.50
2022-10-06T05:01:45.605Z,13.50
2022-10-06T05:04:14.433Z,13.50
2022-10-06T05:06:42.408Z,13.50
2022-10-06T05:09:13.689Z,13.50
2022-10-06T05:11:51.174Z,13.60
2022-10-06T05:14:20.599Z,13.60
2022-10-06T05:16:49.230Z,13.60
2022-10-06T05:19:16.700Z,13.60
2022-10-06T05:21:44.519Z,13.60
2022-10-06T05:24:18.347Z,13.60
2022-10-06T05:26:49.239Z,13.70
2022-10-06T05:29:17.547Z,13.70
2022-10-06T05:31:45.331Z,13.70
2022-10-06T05:34:13.941Z,13.70
2022-10-06T05:36:41.847Z,13.70
2022-10-06T05:39:11.038Z,13.70
2022-10-06T05:41:46.486Z,13.60
2022-10-06T05:44:17.564Z,13.60
2022-10-06T05:46:48.828Z,13.60
2022-10-06T05:49:16.842Z,13.60
2022-10-06T05:51:58.360Z,13.60
2022-10-06T05:54:29.568Z,13.60
2022-10-06T05:56:57.308Z,13.60
2022-10-06T05:59:24.080Z,13.60
2022-10-06T06:01:53.507Z,13.60
2022-10-06T06:04:31.637Z,13.60
2022-10-06T06:06:58.335Z,13.60
2022-10-06T06:09:28.680Z,13.60
2022-10-06T06:11:59.941Z,13.60
2022-10-06T06:14:54.736Z,13.60
2022-10-06T06:17:24.994Z,13.70
2022-10-06T06:19:51.819Z,13.70
2022-10-06T06:22:22.764Z,13.70
2022-10-06T06:24:51.182Z,13.80
2022-10-06T06:27:18.793Z,13.80
2022-10-06T06:29:45.643Z,13.80
2022-10-06T06:32:12.393Z,13.80
2022-10-06T06:34:39.138Z,13.80
2022-10-06T06:37:14.991Z,13.90
2022-10-06T06:39:42.628Z,13.90
2022-10-06T06:42:09.384Z,13.90
2022-10-06T06:44:39.492Z,13.90
2022-10-06T06:47:23.118Z,14.00
2022-10-06T06:49:54.045Z,14.00
2022-10-06T06:52:21.954Z,14.00
2022-10-06T06:54:49.497Z,14.10
2022-10-06T06:57:18.355Z,14.10
2022-10-06T06:59:46.877Z,14.10
2022-10-06T07:02:19.503Z,14.20
2022-10-06T07:04:48.020Z,14.30
2022-10-06T07:07:16.895Z,14.30
2022-10-06T07:09:43.672Z,14.40
2022-10-06T07:12:12.763Z,14.50
2022-10-06T07:15:09.822Z,14.60
2022-10-06T07:18:00.402Z,14.70
2022-10-06T07:21:06.917Z,14.80
2022-10-06T07:23:52.638Z,14.90
2022-10-06T07:26:20.766Z,14.90
2022-10-06T07:28:50.323Z,15.00
2022-10-06T07:31:19.097Z,15.00
2022-10-06T07:33:46.997Z,15.10
2022-10-06T07:36:13.925Z,15.10
2022-10-06T07:38:41.481Z,15.10
2022-10-06T07:41:18.997Z,15.20
2022-10-06T07:43:53.704Z,15.30
2022-10-06T07:46:20.739Z,15.20
2022-10-06T07:48:56.053Z,15.30
2022-10-06T07:51:24.572Z,15.20
2022-10-06T07:53:51.842Z,15.20
2022-10-06T07:56:32.461Z,15.20
2022-10-06T07:58:59.496Z,15.30
2022-10-06T08:01:27.369Z,15.20
2022-10-06T08:03:54.300Z,15.20
2022-10-06T08:06:23.737Z,15.20
2022-10-06T08:08:53.149Z,15.20
2022-10-06T08:11:21.551Z,15.30
2022-10-06T08:13:48.949Z,15.30
2022-10-06T08:16:18.457Z,15.30
2022-10-06T08:18:55.872Z,15.30
2022-10-06T08:21:28.966Z,15.30
2022-10-06T08:23:57.272Z,15.30
2022-10-06T08:26:25.302Z,15.30
2022-10-06T08:28:55.200Z,15.40
2022-10-06T08:31:23.448Z,15.40
2022-10-06T08:33:56.023Z,15.40
2022-10-06T08:36:29.753Z,15.40
2022-10-06T08:38:57.940Z,15.50
2022-10-06T08:41:31.939Z,15.60
2022-10-06T08:44:25.805Z,15.70
2022-10-06T08:47:04.026Z,15.90
2022-10-06T08:49:38.510Z,16.00
2022-10-06T08:52:22.896Z,16.10
2022-10-06T08:55:14.737Z,16.10
2022-10-06T08:58:17.754Z,16.20
2022-10-06T09:00:45.731Z,16.30
2022-10-06T09:03:23.980Z,16.50
2022-10-06T09:05:53.973Z,16.50
2022-10-06T09:08:42.428Z,16.60
2022-10-06T09:11:36.214Z,16.60
2022-10-06T09:14:15.199Z,16.60
2022-10-06T09:16:46.544Z,16.50
2022-10-06T09:19:39.778Z,16.50
2022-10-06T09:22:22.094Z,16.60
2022-10-06T09:24:55.829Z,16.60
2022-10-06T09:27:28.114Z,16.70
2022-10-06T09:29:55.279Z,16.80
2022-10-06T09:32:24.099Z,16.90
2022-10-06T09:34:56.157Z,17.10
2022-10-06T09:37:23.674Z,17.30
2022-10-06T09:39:52.312Z,17.50
2022-10-06T09:42:29.614Z,17.70
2022-10-06T09:44:59.627Z,17.90
2022-10-06T09:47:31.797Z,18.10
2022-10-06T09:50:03.794Z,18.20
2022-10-06T09:52:36.666Z,18.10
2022-10-06T09:55:14.774Z,18.00
2022-10-06T09:57:53.280Z,17.90
2022-10-06T10:00:35.918Z,17.70
2022-10-06T10:03:09.120Z,17.50
2022-10-06T10:05:40.139Z,17.40
2022-10-06T10:08:22.605Z,17.30
2022-10-06T10:10:50.758Z,17.20
2022-10-06T10:13:24.147Z,17.20
2022-10-06T10:15:57.635Z,17.20
2022-10-06T10:18:28.391Z,17.20
2022-10-06T10:21:00.681Z,17.30
2022-10-06T10:23:55.256Z,17.40
2022-10-06T10:26:40.408Z,17.60
2022-10-06T10:29:22.207Z,17.90
2022-10-06T10:32:02.689Z,18.10
2022-10-06T10:35:04.712Z,18.40
2022-10-06T10:37:40.638Z,18.60
2022-10-06T10:40:28.814Z,18.80
2022-10-06T10:43:34.813Z,19.00
2022-10-06T10:46:13.960Z,19.10
2022-10-06T10:49:06.469Z,19.20
2022-10-06T10:51:56.423Z,19.20
2022-10-06T10:54:47.602Z,19.30
2022-10-06T10:57:17.763Z,19.40
2022-10-06T10:59:47.524Z,19.50
2022-10-06T11:02:25.434Z,19.50
2022-10-06T11:04:58.071Z,19.50
2022-10-06T11:07:46.672Z,19.50
2022-10-06T11:10:40.179Z,19.30
2022-10-06T11:13:22.401Z,19.30
2022-10-06T11:16:17.053Z,19.40
2022-10-06T11:19:05.443Z,19.70
2022-10-06T11:21:40.971Z,20.30
2022-10-06T11:24:13.147Z,20.80
2022-10-06T11:27:12.278Z,21.00
2022-10-06T11:29:39.047Z,21.00
2022-10-06T11:32:18.889Z,20.90
2022-10-06T11:34:48.939Z,20.90
2022-10-06T11:37:48.014Z,20.90
2022-10-06T11:40:43.301Z,20.90
2022-10-06T11:43:32.127Z,20.80
2022-10-06T11:46:09.659Z,20.70
2022-10-06T11:48:36.755Z,20.60
2022-10-06T11:51:25.232Z,20.70
2022-10-06T11:53:54.531Z,20.70
2022-10-06T11:56:21.180Z,20.80
2022-10-06T11:58:56.723Z,20.90
2022-10-06T12:01:33.604Z,20.90
2022-10-06T12:04:09.441Z,20.90
2022-10-06T12:06:45.610Z,21.10
2022-10-06T12:09:25.952Z,21.60
2022-10-06T12:11:58.165Z,22.10
2022-10-06T12:18:00.682Z,22.30
2022-10-06T12:21:11.926Z,22.30
2022-10-06T12:23:50.639Z,22.20
2022-10-06T12:26:23.791Z,22.10
2022-10-06T12:29:25.038Z,22.00
2022-10-06T12:31:52.601Z,21.90
2022-10-06T12:34:43.833Z,21.80
2022-10-06T12:37:29.201Z,21.60
2022-10-06T12:40:49.323Z,21.40
2022-10-06T12:43:20.878Z,21.20
2022-10-06T12:46:07.401Z,21.20
2022-10-06T12:48:55.495Z,21.20
2022-10-06T12:51:58.933Z,21.20
2022-10-06T12:54:40.373Z,21.10
2022-10-06T12:57:17.959Z,20.90
2022-10-06T12:59:45.068Z,20.70
2022-10-06T13:02:21.155Z,20.60
2022-10-06T13:04:57.434Z,20.40
2022-10-06T13:07:28.759Z,20.20
2022-10-06T13:10:19.667Z,20.10
2022-10-06T13:12:47.592Z,20.00
2022-10-06T13:18:08.083Z,19.70
2022-10-06T13:20:40.054Z,19.60
2022-10-06T13:23:31.132Z,19.50
2022-10-06T13:26:00.169Z,19.50
2022-10-06T13:28:44.399Z,19.40
2022-10-06T13:31:20.194Z,19.40
2022-10-06T13:34:02.105Z,19.50
2022-10-06T13:36:32.197Z,19.60
2022-10-06T13:38:59.480Z,19.60
2022-10-06T13:41:38.082Z,19.80
2022-10-06T13:44:18.688Z,20.00
2022-10-06T13:47:01.696Z,20.40
2022-10-06T13:49:40.827Z,21.00
2022-10-06T13:52:19.763Z,21.40
2022-10-06T13:54:46.417Z,21.50
2022-10-06T13:57:37.626Z,21.50
2022-10-06T14:00:29.155Z,21.40
2022-10-06T14:02:57.418Z,21.60
2022-10-06T14:05:36.369Z,21.90
2022-10-06T14:08:19.909Z,22.00
2022-10-06T14:10:53.297Z,22.20
2022-10-06T14:13:30.837Z,22.10
2022-10-06T14:16:04.271Z,21.90
2022-10-06T14:18:43.913Z,21.60
2022-10-06T14:21:37.225Z,21.40
2022-10-06T14:24:09.907Z,21.10
2022-10-06T14:26:37.820Z,20.90
2022-10-06T14:29:05.523Z,20.70
2022-10-06T14:31:33.897Z,20.40
2022-10-06T14:34:01.618Z,20.30
2022-10-06T14:36:31.234Z,20.00
2022-10-06T14:38:59.028Z,19.80
2022-10-06T14:41:28.037Z,19.60
2022-10-06T14:44:03.366Z,19.50
2022-10-06T14:46:30.273Z,19.50
2022-10-06T14:48:57.859Z,19.50
2022-10-06T14:51:26.828Z,19.50
2022-10-06T14:53:56.513Z,19.40
2022-10-06T14:56:25.940Z,19.30
2022-10-06T14:58:53.143Z,19.30
2022-10-06T15:01:23.060Z,19.30
2022-10-06T15:03:58.637Z,19.30
2022-10-06T15:06:44.616Z,19.20
2022-10-06T15:09:11.816Z,19.20
2022-10-06T15:11:39.832Z,19.10
2022-10-06T15:14:08.604Z,19.10
2022-10-06T15:16:40.648Z,19.00
2022-10-06T15:19:07.831Z,18.90
2022-10-06T15:21:35.842Z,18.90
2022-10-06T15:24:04.353Z,18.80
2022-10-06T15:26:52.516Z,18.80
2022-10-06T15:29:19.495Z,18.70
2022-10-06T15:31:55.308Z,18.60
2022-10-06T15:34:24.314Z,18.50
2022-10-06T15:36:57.697Z,18.40
2022-10-06T15:39:31.268Z,18.30
2022-10-06T15:41:58.625Z,18.20
2022-10-06T15:44:25.885Z,18.20
2022-10-06T15:46:54.586Z,18.10
2022-10-06T15:49:26.386Z,18.00
2022-10-06T15:51:56.588Z,18.00
2022-10-06T15:54:46.459Z,17.90
2022-10-06T15:57:19.534Z,17.80
2022-10-06T15:59:47.723Z,17.70
2022-10-06T16:02:17.284Z,17.60
2022-10-06T16:04:55.861Z,17.60
2022-10-06T16:07:23.763Z,17.50
2022-10-06T16:09:51.828Z,17.50
2022-10-06T16:12:21.524Z,17.40
2022-10-06T16:14:48.620Z,17.20
2022-10-06T16:17:17.217Z,17.10
2022-10-06T16:19:44.556Z,16.90
2022-10-06T16:22:18.566Z,16.80
2022-10-06T16:24:45.451Z,16.70
2022-10-06T16:27:14.395Z,16.50
2022-10-06T16:29:41.224Z,16.40
2022-10-06T16:32:08.187Z,16.30
2022-10-06T16:34:35.023Z,16.20
2022-10-06T16:37:03.391Z,16.00
2022-10-06T16:39:31.178Z,15.90
2022-10-06T16:41:57.940Z,15.80
2022-10-06T16:44:24.902Z,15.70
2022-10-06T16:46:51.714Z,15.50
2022-10-06T16:49:19.779Z,15.40
2022-10-06T16:51:46.688Z,15.30
2022-10-06T16:54:14.938Z,15.10
2022-10-06T16:56:48.267Z,14.90
2022-10-06T16:59:20.394Z,14.80
2022-10-06T17:01:48.493Z,14.70
2022-10-06T17:04:20.325Z,14.50
2022-10-06T17:06:49.932Z,14.40
2022-10-06T17:09:23.263Z,14.20
2022-10-06T17:11:52.765Z,14.10
2022-10-06T17:14:21.389Z,13.90
2022-10-06T17:16:50.771Z,13.80
2022-10-06T17:19:19.281Z,13.70
2022-10-06T17:21:48.803Z,13.50
2022-10-06T17:24:18.589Z,13.40
2022-10-06T17:26:47.735Z,13.30
2022-10-06T17:29:20.616Z,13.20
2022-10-06T17:31:49.366Z,13.10
2022-10-06T17:34:21.236Z,13.00
2022-10-06T17:36:50.828Z,12.90
2022-10-06T17:39:20.381Z,12.80
2022-10-06T17:41:49.024Z,12.70
2022-10-06T17:44:20.458Z,12.60
2022-10-06T17:46:48.177Z,12.50
2022-10-06T17:49:17.278Z,12.40
2022-10-06T17:51:45.231Z,12.30
2022-10-06T17:54:16.919Z,12.30
2022-10-06T17:56:45.963Z,12.20
2022-10-06T17:59:16.346Z,12.10
2022-10-06T18:01:45.152Z,12.00
2022-10-06T18:04:16.090Z,12.00
2022-10-06T18:06:44.635Z,11.90
2022-10-06T18:09:11.812Z,11.80
2022-10-06T18:11:41.617Z,11.70
2022-10-06T18:14:13.524Z,11.70
2022-10-06T18:17:01.819Z,11.60
2022-10-06T18:19:34.156Z,11.50
2022-10-06T18:22:04.883Z,11.50
2022-10-06T18:24:31.676Z,11.40
2022-10-06T18:27:00.337Z,11.40
2022-10-06T18:29:35.164Z,11.30
2022-10-06T18:37:37.058Z,11.20
2022-10-06T18:40:06.701Z,11.20
2022-10-06T18:42:33.711Z,11.20
2022-10-06T18:45:19.431Z,11.20
2022-10-06T18:48:04.749Z,11.20
2022-10-06T18:50:32.139Z,11.20
2022-10-06T18:52:59.115Z,11.30
2022-10-06T18:55:27.830Z,11.30
2022-10-06T18:57:54.615Z,11.40
2022-10-06T19:00:21.935Z,11.40
2022-10-06T19:02:49.333Z,11.50
2022-10-06T19:05:17.452Z,11.60
2022-10-06T19:07:45.390Z,11.60
2022-10-06T19:10:12.293Z,11.70
2022-10-06T19:12:39.017Z,11.70
2022-10-06T19:15:06.132Z,11.80
2022-10-06T19:17:34.530Z,11.80
2022-10-06T19:20:01.829Z,11.80
2022-10-06T19:22:28.561Z,11.90
2022-10-06T19:24:55.256Z,11.90
2022-10-06T19:27:26.224Z,11.90
2022-10-06T19:29:56.467Z,11.90
2022-10-06T19:32:27.398Z,11.90
2022-10-06T19:34:57.788Z,11.90
2022-10-06T19:37:27.431Z,11.90
2022-10-06T19:39:54.186Z,11.90
2022-10-06T19:42:39.500Z,11.90
2022-10-06T19:45:08.436Z,11.90
2022-10-06T19:47:35.358Z,11.90
2022-10-06T19:50:10.335Z,11.90
2022-10-06T19:52:37.555Z,11.90
2022-10-06T19:55:04.906Z,11.90
2022-10-06T19:57:33.616Z,11.90
2022-10-06T20:00:01.697Z,11.90
2022-10-06T20:02:28.971Z,11.90
2022-10-06T20:04:56.837Z,11.90
2022-10-06T20:07:27.489Z,11.90
2022-10-06T20:09:55.139Z,11.90
2022-10-06T20:12:24.967Z,11.90
2022-10-06T20:14:56.083Z,11.90
2022-10-06T20:17:23.085Z,11.90
2022-10-06T20:19:53.920Z,11.90
2022-10-06T20:22:24.223Z,11.90
2022-10-06T20:24:52.312Z,11.90
2022-10-06T20:27:19.801Z,11.90
2022-10-06T20:29:46.807Z,11.90
2022-10-06T20:32:14.140Z,11.90
2022-10-06T20:34:40.925Z,11.90
2022-10-06T20:37:07.668Z,11.90
2022-10-06T20:39:54.127Z,11.90
2022-10-06T20:42:21.582Z,11.90
2022-10-06T20:44:48.830Z,11.90
2022-10-06T20:47:18.683Z,11.90
2022-10-06T20:49:45.508Z,11.90
2022-10-06T20:52:14.802Z,11.90
2022-10-06T20:54:44.074Z,11.90
2022-10-06T20:57:10.796Z,11.90
2022-10-06T20:59:38.610Z,11.90
2022-10-06T21:02:07.086Z,11.90
2022-10-06T21:04:34.655Z,11.90
2022-10-06T21:07:03.878Z,11.90
2022-10-06T21:09:30.906Z,11.90
2022-10-06T21:11:58.644Z,11.90
2022-10-06T21:14:25.564Z,11.90
2022-10-06T21:16:52.518Z,11.90
2022-10-06T21:19:21.280Z,11.90
2022-10-06T21:21:50.632Z,11.90
2022-10-06T21:24:17.683Z,11.80
2022-10-06T21:26:44.434Z,11.90
2022-10-06T21:29:14.012Z,11.80
2022-10-06T21:31:41.349Z,11.80
2022-10-06T21:34:08.477Z,11.80
2022-10-06T21:36:36.289Z,11.80
2022-10-06T21:39:05.756Z,11.80
2022-10-06T21:41:40.979Z,11.80
2022-10-06T21:44:16.620Z,11.80
2022-10-06T21:46:50.668Z,11.80
2022-10-06T21:49:22.630Z,11.80
2022-10-06T21:51:52.282Z,11.70
2022-10-06T21:54:20.479Z,11.70
2022-10-06T21:56:47.322Z,11.70
2022-10-06T21:59:15.970Z,11.70
2022-10-06T22:01:44.953Z,11.70
2022-10-06T22:04:14.166Z,11.70
2022-10-06T22:06:41.854Z,11.70
2022-10-06T22:09:12.185Z,11.70
2022-10-06T22:11:40.653Z,11.70
2022-10-06T22:14:11.782Z,11.70
2022-10-06T22:16:39.347Z,11.70
2022-10-06T22:19:08.331Z,11.70
2022-10-06T22:21:38.030Z,11.70
2022-10-06T22:24:18.388Z,11.60
2022-10-06T22:26:45.880Z,11.70
2022-10-06T22:29:17.258Z,11.60
2022-10-06T22:31:45.781Z,11.60
2022-10-06T22:34:15.346Z,11.60
2022-10-06T22:36:42.163Z,11.60
2022-10-06T22:39:08.952Z,11.50
2022-10-06T22:41:35.902Z,11.50
2022-10-06T22:44:03.159Z,11.50
2022-10-06T22:46:33.342Z,11.40
2022-10-06T22:49:00.294Z,11.40
2022-10-06T22:51:27.394Z,11.40
2022-10-06T22:53:58.358Z,11.30
2022-10-06T22:56:28.316Z,11.30
2022-10-06T22:58:56.883Z,11.30
2022-10-06T23:01:23.567Z,11.30
2022-10-06T23:03:50.269Z,11.30
2022-10-06T23:06:18.795Z,11.30
2022-10-06T23:08:46.542Z,11.30
2022-10-06T23:11:16.550Z,11.30
2022-10-06T23:13:44.525Z,11.20
2022-10-06T23:16:13.598Z,11.20
2022-10-06T23:18:41.673Z,11.20
2022-10-06T23:21:10.964Z,11.10
2022-10-06T23:23:37.678Z,11.10
2022-10-06T23:26:12.760Z,11.20
2022-10-06T23:28:42.009Z,11.10
2022-10-06T23:31:10.865Z,11.10
2022-10-06T23:33:38.280Z,11.10
2022-10-06T23:36:07.501Z,11.10
2022-10-06T23:38:34.645Z,11.10
2022-10-06T23:41:02.853Z,11.10
2022-10-06T23:43:29.609Z,11.10
2022-10-06T23:45:56.885Z,11.10
2022-10-06T23:48:23.688Z,11.10
2022-10-06T23:50:58.154Z,11.10
2022-10-06T23:53:24.953Z,11.00
2022-10-06T23:55:52.764Z,11.00
2022-10-06T23:58:20.474Z,11.00
